createdAt,value
2023-03-15T00:00:57.722Z,975.96
2023-03-15T00:01:57.736Z,975.93
2023-03-15T00:02:57.693Z,975.92
2023-03-15T00:03:57.801Z,975.91
2023-03-15T00:04:57.680Z,975.91
2023-03-15T00:05:57.689Z,975.92
2023-03-15T00:06:57.649Z,975.93
2023-03-15T00:07:57.666Z,975.96
2023-03-15T00:08:57.629Z,975.98
2023-03-15T00:09:57.651Z,976.00
2023-03-15T00:10:57.617Z,976.01
2023-03-15T00:11:57.613Z,976.04
2023-03-15T00:12:57.587Z,976.07
2023-03-15T00:13:57.590Z,976.11
2023-03-15T00:14:57.567Z,976.14
2023-03-15T00:15:57.614Z,976.19
2023-03-15T00:16:57.548Z,976.24
2023-03-15T00:17:57.551Z,976.28
2023-03-15T00:18:57.539Z,976.29
2023-03-15T00:19:57.527Z,976.31
2023-03-15T00:20:57.507Z,976.32
2023-03-15T00:21:57.519Z,976.32
2023-03-15T00:22:57.486Z,976.30
2023-03-15T00:23:57.525Z,976.29
2023-03-15T00:24:57.472Z,976.28
2023-03-15T00:25:57.469Z,976.27
2023-03-15T00:26:57.454Z,976.28
2023-03-15T00:27:57.455Z,976.30
2023-03-15T00:28:57.447Z,976.33
2023-03-15T00:29:57.406Z,976.38
2023-03-15T00:30:57.441Z,976.41
2023-03-15T00:31:57.392Z,976.45
2023-03-15T00:32:57.433Z,976.48
2023-03-15T00:33:57.386Z,976.51
2023-03-15T00:34:57.373Z,976.52
2023-03-15T00:35:57.378Z,976.54
2023-03-15T00:36:57.362Z,976.54
2023-03-15T00:37:57.334Z,976.53
2023-03-15T00:38:57.326Z,976.52
2023-03-15T00:39:57.303Z,976.51
2023-03-15T00:40:57.305Z,976.53
2023-03-15T00:41:57.295Z,976.55
2023-03-15T00:42:57.284Z,976.59
2023-03-15T00:43:57.271Z,976.64
2023-03-15T00:44:57.259Z,976.66
2023-03-15T00:45:57.254Z,976.71
2023-03-15T00:46:57.299Z,976.73
2023-03-15T00:47:57.220Z,976.77
2023-03-15T00:48:57.222Z,976.77
2023-03-15T00:49:57.197Z,976.77
2023-03-15T00:50:57.219Z,976.78
2023-03-15T00:51:57.184Z,976.79
2023-03-15T00:52:57.195Z,976.79
2023-03-15T00:53:57.164Z,976.80
2023-03-15T00:54:57.165Z,976.84
2023-03-15T00:55:57.156Z,976.87
2023-03-15T00:56:57.152Z,976.90
2023-03-15T00:57:57.116Z,976.91
2023-03-15T00:58:57.116Z,976.93
2023-03-15T00:59:57.099Z,976.96
2023-03-15T01:00:57.095Z,976.99
2023-03-15T01:01:57.136Z,977.04
2023-03-15T01:02:57.123Z,977.06
2023-03-15T01:03:57.055Z,977.08
2023-03-15T01:04:57.059Z,977.10
2023-03-15T01:05:57.027Z,977.10
2023-03-15T01:06:57.048Z,977.13
2023-03-15T01:07:57.006Z,977.18
2023-03-15T01:08:57.043Z,977.21
2023-03-15T01:09:56.989Z,977.23
2023-03-15T01:10:57.001Z,977.25
2023-03-15T01:11:56.971Z,977.29
2023-03-15T01:12:56.967Z,977.32
2023-03-15T01:13:56.942Z,977.35
2023-03-15T01:14:56.949Z,977.36
2023-03-15T01:15:56.983Z,977.36
2023-03-15T01:16:56.934Z,977.36
2023-03-15T01:17:56.907Z,977.37
2023-03-15T01:18:56.938Z,977.38
2023-03-15T01:19:56.880Z,977.36
2023-03-15T01:20:56.896Z,977.34
2023-03-15T01:21:56.882Z,977.32
2023-03-15T01:22:56.886Z,977.31
2023-03-15T01:23:56.856Z,977.30
2023-03-15T01:24:56.845Z,977.29
2023-03-15T01:25:56.814Z,977.31
2023-03-15T01:26:56.818Z,977.32
2023-03-15T01:27:56.789Z,977.35
2023-03-15T01:28:56.810Z,977.37
2023-03-15T01:29:56.783Z,977.38
2023-03-15T01:30:58.356Z,977.39
2023-03-15T01:31:56.766Z,977.42
2023-03-15T01:32:56.799Z,977.40
2023-03-15T01:33:56.730Z,977.41
2023-03-15T01:34:56.755Z,977.42
2023-03-15T01:35:56.725Z,977.45
2023-03-15T01:36:56.730Z,977.46
2023-03-15T01:37:56.687Z,977.48
2023-03-15T01:38:56.699Z,977.49
2023-03-15T01:39:56.672Z,977.50
2023-03-15T01:40:56.689Z,977.51
2023-03-15T01:41:56.647Z,977.51
2023-03-15T01:42:56.654Z,977.52
2023-03-15T01:43:56.626Z,977.53
2023-03-15T01:44:56.655Z,977.54
2023-03-15T01:45:56.605Z,977.54
2023-03-15T01:46:56.654Z,977.55
2023-03-15T01:47:56.582Z,977.55
2023-03-15T01:48:56.601Z,977.54
2023-03-15T01:49:56.559Z,977.56
2023-03-15T01:50:56.572Z,977.57
2023-03-15T01:51:56.545Z,977.59
2023-03-15T01:52:56.546Z,977.60
2023-03-15T01:53:56.542Z,977.61
2023-03-15T01:54:56.520Z,977.62
2023-03-15T01:55:56.504Z,977.63
2023-03-15T01:56:56.511Z,977.64
2023-03-15T01:57:56.486Z,977.64
2023-03-15T01:58:56.481Z,977.65
2023-03-15T01:59:56.457Z,977.67
2023-03-15T02:00:56.471Z,977.69
2023-03-15T02:01:56.531Z,977.70
2023-03-15T02:02:56.451Z,977.72
2023-03-15T02:03:56.411Z,977.75
2023-03-15T02:04:56.419Z,977.77
2023-03-15T02:05:56.396Z,977.78
2023-03-15T02:06:56.397Z,977.80
2023-03-15T02:07:56.416Z,977.82
2023-03-15T02:08:56.395Z,977.83
2023-03-15T02:09:56.345Z,977.85
2023-03-15T02:10:56.370Z,977.86
2023-03-15T02:11:56.332Z,977.86
2023-03-15T02:12:56.331Z,977.87
2023-03-15T02:13:56.317Z,977.87
2023-03-15T02:14:56.322Z,977.87
2023-03-15T02:15:56.284Z,977.89
2023-03-15T02:16:56.290Z,977.89
2023-03-15T02:17:56.270Z,977.90
2023-03-15T02:18:56.284Z,977.91
2023-03-15T02:19:56.240Z,977.92
2023-03-15T02:20:56.258Z,977.93
2023-03-15T02:21:56.222Z,977.95
2023-03-15T02:22:56.238Z,977.95
2023-03-15T02:23:56.210Z,977.95
2023-03-15T02:24:56.221Z,977.95
2023-03-15T02:25:56.179Z,977.96
2023-03-15T02:26:56.218Z,977.96
2023-03-15T02:27:56.160Z,977.99
2023-03-15T02:28:56.170Z,978.00
2023-03-15T02:29:56.135Z,978.02
2023-03-15T02:30:56.137Z,978.04
2023-03-15T02:31:56.213Z,978.07
2023-03-15T02:32:56.181Z,978.09
2023-03-15T02:33:56.089Z,978.11
2023-03-15T02:34:56.105Z,978.12
2023-03-15T02:35:56.152Z,978.14
2023-03-15T02:36:56.073Z,978.15
2023-03-15T02:37:56.066Z,978.16
2023-03-15T02:38:56.089Z,978.16
2023-03-15T02:39:56.028Z,978.17
2023-03-15T02:40:56.043Z,978.17
2023-03-15T02:41:56.012Z,978.19
2023-03-15T02:42:56.018Z,978.22
2023-03-15T02:43:56.022Z,978.23
2023-03-15T02:44:56.007Z,978.26
2023-03-15T02:45:55.992Z,978.30
2023-03-15T02:46:55.965Z,978.32
2023-03-15T02:47:55.947Z,978.33
2023-03-15T02:48:55.956Z,978.33
2023-03-15T02:49:55.930Z,978.40
2023-03-15T02:50:55.921Z,978.42
2023-03-15T02:51:55.900Z,978.42
2023-03-15T02:52:55.938Z,978.42
2023-03-15T02:53:55.878Z,978.42
2023-03-15T02:54:55.883Z,978.43
2023-03-15T02:55:55.859Z,978.46
2023-03-15T02:56:55.878Z,978.51
2023-03-15T02:57:55.863Z,978.55
2023-03-15T02:58:55.839Z,978.56
2023-03-15T02:59:55.820Z,978.57
2023-03-15T03:00:55.839Z,978.59
2023-03-15T03:01:55.797Z,978.62
2023-03-15T03:02:55.825Z,978.65
2023-03-15T03:03:55.782Z,978.67
2023-03-15T03:04:55.794Z,978.70
2023-03-15T03:05:55.752Z,978.73
2023-03-15T03:06:55.763Z,978.77
2023-03-15T03:07:55.734Z,978.80
2023-03-15T03:08:55.761Z,978.82
2023-03-15T03:09:55.716Z,978.84
2023-03-15T03:10:55.710Z,978.85
2023-03-15T03:11:55.687Z,978.88
2023-03-15T03:12:55.703Z,978.90
2023-03-15T03:13:55.675Z,978.91
2023-03-15T03:14:55.684Z,978.94
2023-03-15T03:15:55.643Z,978.98
2023-03-15T03:16:55.707Z,979.01
2023-03-15T03:17:55.623Z,979.03
2023-03-15T03:18:55.664Z,979.07
2023-03-15T03:19:55.607Z,979.08
2023-03-15T03:20:55.600Z,979.09
2023-03-15T03:21:55.575Z,979.12
2023-03-15T03:22:55.621Z,979.14
2023-03-15T03:23:55.555Z,979.19
2023-03-15T03:24:55.581Z,979.19
2023-03-15T03:25:55.541Z,979.23
2023-03-15T03:26:55.545Z,979.23
2023-03-15T03:27:55.509Z,979.26
2023-03-15T03:28:55.531Z,979.28
2023-03-15T03:29:55.504Z,979.30
2023-03-15T03:30:55.599Z,979.30
2023-03-15T03:31:55.469Z,979.32
2023-03-15T03:32:55.521Z,979.33
2023-03-15T03:33:55.444Z,979.35
2023-03-15T03:34:55.476Z,979.37
2023-03-15T03:35:55.482Z,979.40
2023-03-15T03:36:55.438Z,979.43
2023-03-15T03:37:55.419Z,979.45
2023-03-15T03:38:55.414Z,979.47
2023-03-15T03:39:55.393Z,979.51
2023-03-15T03:40:55.398Z,979.52
2023-03-15T03:41:55.366Z,979.56
2023-03-15T03:42:55.365Z,979.56
2023-03-15T03:43:55.354Z,979.60
2023-03-15T03:44:55.370Z,979.61
2023-03-15T03:45:55.421Z,979.64
2023-03-15T03:46:55.336Z,979.66
2023-03-15T03:47:55.307Z,979.66
2023-03-15T03:48:55.310Z,979.67
2023-03-15T03:49:55.274Z,979.68
2023-03-15T03:50:55.281Z,979.69
2023-03-15T03:51:55.253Z,979.71
2023-03-15T03:52:55.281Z,979.72
2023-03-15T03:53:55.236Z,979.76
2023-03-15T03:54:55.245Z,979.76
2023-03-15T03:55:55.211Z,979.75
2023-03-15T03:56:55.221Z,979.78
2023-03-15T03:57:55.200Z,979.80
2023-03-15T03:58:55.203Z,979.82
2023-03-15T03:59:55.169Z,979.83
2023-03-15T04:00:55.188Z,979.87
2023-03-15T04:01:55.151Z,979.88
2023-03-15T04:02:55.232Z,979.90
2023-03-15T04:03:55.128Z,979.90
2023-03-15T04:04:55.184Z,979.91
2023-03-15T04:05:55.116Z,979.90
2023-03-15T04:06:55.124Z,979.92
2023-03-15T04:07:55.123Z,979.90
2023-03-15T04:08:55.090Z,979.90
2023-03-15T04:09:55.060Z,979.92
2023-03-15T04:10:55.076Z,979.93
2023-03-15T04:11:55.046Z,979.93
2023-03-15T04:12:55.062Z,979.93
2023-03-15T04:13:55.043Z,979.93
2023-03-15T04:14:55.033Z,979.94
2023-03-15T04:15:55.018Z,979.96
2023-03-15T04:16:55.040Z,979.98
2023-03-15T04:17:54.987Z,979.98
2023-03-15T04:18:55.015Z,980.00
2023-03-15T04:19:54.965Z,980.04
2023-03-15T04:20:55.025Z,980.06
2023-03-15T04:21:55.059Z,980.10
2023-03-15T04:22:54.945Z,980.12
2023-03-15T04:23:54.918Z,980.12
2023-03-15T04:24:54.951Z,980.13
2023-03-15T04:25:54.904Z,980.14
2023-03-15T04:26:54.916Z,980.16
2023-03-15T04:27:54.887Z,980.19
2023-03-15T04:28:54.894Z,980.21
2023-03-15T04:29:54.867Z,980.22
2023-03-15T04:30:54.888Z,980.24
2023-03-15T04:31:54.886Z,980.26
2023-03-15T04:32:54.922Z,980.28
2023-03-15T04:33:54.825Z,980.29
2023-03-15T04:34:54.843Z,980.30
2023-03-15T04:35:54.855Z,980.34
2023-03-15T04:36:54.853Z,980.35
2023-03-15T04:37:54.788Z,980.38
2023-03-15T04:38:54.793Z,980.42
2023-03-15T04:39:54.773Z,980.46
2023-03-15T04:40:54.787Z,980.49
2023-03-15T04:41:54.764Z,980.52
2023-03-15T04:42:54.774Z,980.52
2023-03-15T04:43:54.748Z,980.54
2023-03-15T04:44:54.727Z,980.55
2023-03-15T04:45:54.736Z,980.57
2023-03-15T04:46:54.740Z,980.58
2023-03-15T04:47:54.717Z,980.59
2023-03-15T04:48:54.678Z,980.60
2023-03-15T04:49:54.694Z,980.60
2023-03-15T04:50:54.656Z,980.62
2023-03-15T04:51:54.677Z,980.64
2023-03-15T04:52:54.638Z,980.65
2023-03-15T04:53:54.686Z,980.66
2023-03-15T04:54:54.623Z,980.67
2023-03-15T04:55:54.641Z,980.68
2023-03-15T04:56:54.600Z,980.69
2023-03-15T04:57:54.607Z,980.70
2023-03-15T04:58:54.580Z,980.70
2023-03-15T04:59:54.610Z,980.69
2023-03-15T05:00:54.642Z,980.69
2023-03-15T05:01:54.624Z,980.71
2023-03-15T05:02:54.549Z,980.75
2023-03-15T05:03:54.565Z,980.77
2023-03-15T05:04:54.464Z,980.77
2023-03-15T05:05:54.520Z,980.79
2023-03-15T05:06:54.456Z,980.82
2023-03-15T05:07:54.467Z,980.82
2023-03-15T05:08:54.481Z,980.85
2023-03-15T05:09:54.454Z,980.85
2023-03-15T05:10:54.416Z,980.85
2023-03-15T05:11:54.465Z,980.84
2023-03-15T05:12:54.439Z,980.86
2023-03-15T05:13:54.450Z,980.87
2023-03-15T05:14:54.588Z,980.88
2023-03-15T05:15:54.488Z,980.88
2023-03-15T05:16:54.345Z,980.90
2023-03-15T05:17:54.345Z,980.91
2023-03-15T05:18:54.332Z,980.93
2023-03-15T05:19:54.371Z,980.96
2023-03-15T05:20:54.304Z,981.00
2023-03-15T05:21:54.326Z,981.02
2023-03-15T05:22:54.283Z,981.04
2023-03-15T05:23:54.286Z,981.07
2023-03-15T05:24:54.262Z,981.09
2023-03-15T05:25:54.323Z,981.10
2023-03-15T05:26:54.266Z,981.11
2023-03-15T05:27:54.253Z,981.11
2023-03-15T05:28:54.241Z,981.09
2023-03-15T05:29:54.240Z,981.09
2023-03-15T05:30:54.200Z,981.10
2023-03-15T05:31:54.262Z,981.11
2023-03-15T05:32:54.213Z,981.12
2023-03-15T05:33:54.183Z,981.12
2023-03-15T05:34:54.171Z,981.14
2023-03-15T05:35:54.169Z,981.15
2023-03-15T05:36:54.143Z,981.17
2023-03-15T05:37:54.172Z,981.19
2023-03-15T05:38:54.137Z,981.21
2023-03-15T05:39:54.128Z,981.24
2023-03-15T05:40:54.106Z,981.27
2023-03-15T05:41:54.125Z,981.29
2023-03-15T05:42:54.084Z,981.30
2023-03-15T05:43:54.098Z,981.32
2023-03-15T05:44:54.065Z,981.35
2023-03-15T05:45:54.111Z,981.39
2023-03-15T05:46:54.045Z,981.41
2023-03-15T05:47:54.077Z,981.44
2023-03-15T05:48:54.032Z,981.46
2023-03-15T05:49:54.023Z,981.48
2023-03-15T05:50:53.998Z,981.52
2023-03-15T05:51:54.002Z,981.53
2023-03-15T05:52:53.990Z,981.55
2023-03-15T05:53:53.992Z,981.57
2023-03-15T05:54:53.957Z,981.59
2023-03-15T05:55:53.975Z,981.60
2023-03-15T05:56:53.946Z,981.63
2023-03-15T05:57:53.941Z,981.66
2023-03-15T05:58:53.916Z,981.68
2023-03-15T05:59:55.060Z,981.69
2023-03-15T06:00:53.898Z,981.70
2023-03-15T06:01:53.950Z,981.71
2023-03-15T06:02:53.895Z,981.72
2023-03-15T06:03:53.929Z,981.73
2023-03-15T06:04:53.854Z,981.74
2023-03-15T06:05:53.873Z,981.75
2023-03-15T06:06:53.846Z,981.76
2023-03-15T06:07:53.873Z,981.75
2023-03-15T06:08:53.814Z,981.76
2023-03-15T06:09:53.829Z,981.76
2023-03-15T06:10:53.791Z,981.75
2023-03-15T06:11:53.801Z,981.75
2023-03-15T06:12:53.780Z,981.74
2023-03-15T06:13:53.804Z,981.73
2023-03-15T06:14:53.772Z,981.74
2023-03-15T06:15:53.760Z,981.74
2023-03-15T06:16:53.794Z,981.72
2023-03-15T06:17:53.752Z,981.72
2023-03-15T06:18:53.728Z,981.72
2023-03-15T06:19:53.721Z,981.72
2023-03-15T06:20:53.693Z,981.74
2023-03-15T06:21:53.712Z,981.74
2023-03-15T06:22:53.674Z,981.75
2023-03-15T06:23:53.699Z,981.78
2023-03-15T06:24:53.652Z,981.78
2023-03-15T06:25:53.668Z,981.81
2023-03-15T06:26:53.627Z,981.83
2023-03-15T06:27:53.747Z,981.82
2023-03-15T06:28:53.627Z,981.83
2023-03-15T06:29:53.614Z,981.85
2023-03-15T06:30:53.679Z,981.87
2023-03-15T06:31:53.608Z,981.88
2023-03-15T06:32:53.625Z,981.87
2023-03-15T06:33:53.600Z,981.86
2023-03-15T06:34:53.543Z,981.87
2023-03-15T06:35:53.574Z,981.89
2023-03-15T06:36:53.524Z,981.89
2023-03-15T06:37:53.552Z,981.90
2023-03-15T06:38:53.504Z,981.90
2023-03-15T06:39:53.525Z,981.92
2023-03-15T06:40:53.477Z,981.93
2023-03-15T06:41:53.511Z,981.94
2023-03-15T06:42:53.457Z,981.95
2023-03-15T06:43:53.459Z,981.95
2023-03-15T06:44:53.480Z,981.95
2023-03-15T06:45:53.483Z,981.98
2023-03-15T06:46:53.414Z,981.96
2023-03-15T06:47:53.431Z,981.97
2023-03-15T06:48:53.398Z,981.95
2023-03-15T06:49:54.494Z,981.94
2023-03-15T06:50:53.401Z,981.94
2023-03-15T06:51:53.400Z,981.93
2023-03-15T06:52:53.351Z,981.94
2023-03-15T06:53:53.357Z,981.92
2023-03-15T06:54:53.329Z,981.91
2023-03-15T06:55:53.337Z,981.90
2023-03-15T06:56:53.318Z,981.91
2023-03-15T06:57:53.329Z,981.90
2023-03-15T06:58:53.289Z,981.89
2023-03-15T06:59:53.295Z,981.88
2023-03-15T07:00:53.271Z,981.88
2023-03-15T07:01:53.322Z,981.87
2023-03-15T07:02:53.311Z,981.87
2023-03-15T07:03:53.268Z,981.89
2023-03-15T07:04:53.226Z,981.92
2023-03-15T07:05:53.234Z,981.95
2023-03-15T07:06:53.216Z,981.99
2023-03-15T07:07:53.221Z,982.01
2023-03-15T07:08:53.187Z,982.04
2023-03-15T07:09:55.183Z,982.04
2023-03-15T07:10:53.170Z,982.02
2023-03-15T07:11:53.179Z,982.03
2023-03-15T07:12:53.170Z,982.01
2023-03-15T07:13:53.183Z,982.00
2023-03-15T07:14:53.127Z,982.00
2023-03-15T07:15:53.262Z,981.98
2023-03-15T07:16:53.111Z,981.98
2023-03-15T07:17:53.129Z,981.98
2023-03-15T07:18:53.095Z,982.01
2023-03-15T07:19:56.666Z,982.02
2023-03-15T07:20:53.061Z,982.05
2023-03-15T07:21:53.081Z,982.05
2023-03-15T07:22:53.041Z,982.04
2023-03-15T07:23:53.106Z,982.03
2023-03-15T07:24:53.026Z,982.02
2023-03-15T07:25:55.224Z,982.03
2023-03-15T07:26:53.002Z,982.05
2023-03-15T07:27:53.012Z,982.05
2023-03-15T07:28:52.982Z,982.06
2023-03-15T07:29:53.031Z,982.06
2023-03-15T07:30:52.961Z,982.07
2023-03-15T07:31:53.090Z,982.07
2023-03-15T07:32:53.065Z,982.10
2023-03-15T07:33:52.968Z,982.10
2023-03-15T07:34:52.914Z,982.12
2023-03-15T07:35:52.937Z,982.14
2023-03-15T07:36:52.898Z,982.16
2023-03-15T07:37:52.896Z,982.18
2023-03-15T07:38:52.887Z,982.22
2023-03-15T07:39:52.882Z,982.25
2023-03-15T07:40:52.876Z,982.29
2023-03-15T07:41:52.872Z,982.33
2023-03-15T07:42:52.827Z,982.32
2023-03-15T07:43:52.845Z,982.32
2023-03-15T07:44:52.804Z,982.31
2023-03-15T07:45:52.829Z,982.29
2023-03-15T07:46:52.805Z,982.29
2023-03-15T07:47:54.844Z,982.29
2023-03-15T07:48:52.760Z,982.27
2023-03-15T07:49:52.789Z,982.26
2023-03-15T07:50:52.752Z,982.25
2023-03-15T07:51:52.761Z,982.26
2023-03-15T07:52:52.725Z,982.25
2023-03-15T07:53:52.737Z,982.25
2023-03-15T07:54:52.695Z,982.26
2023-03-15T07:55:52.714Z,982.26
2023-03-15T07:56:52.692Z,982.27
2023-03-15T07:57:53.347Z,982.24
2023-03-15T07:58:52.654Z,982.26
2023-03-15T07:59:52.670Z,982.26
2023-03-15T08:00:52.638Z,982.28
2023-03-15T08:01:52.679Z,982.28
2023-03-15T08:02:52.681Z,982.29
2023-03-15T08:03:52.632Z,982.30
2023-03-15T08:04:52.592Z,982.38
2023-03-15T08:05:52.823Z,982.32
2023-03-15T08:06:52.580Z,982.33
2023-03-15T08:07:52.594Z,982.33
2023-03-15T08:08:52.552Z,982.34
2023-03-15T08:09:52.553Z,982.31
2023-03-15T08:10:52.529Z,982.33
2023-03-15T08:11:52.548Z,982.33
2023-03-15T08:12:52.523Z,982.37
2023-03-15T08:13:52.521Z,982.42
2023-03-15T08:14:52.534Z,982.37
2023-03-15T08:15:52.566Z,982.38
2023-03-15T08:16:52.465Z,982.37
2023-03-15T08:17:52.496Z,982.36
2023-03-15T08:18:52.437Z,982.35
2023-03-15T08:19:52.445Z,982.38
2023-03-15T08:20:52.425Z,982.35
2023-03-15T08:21:52.439Z,982.36
2023-03-15T08:22:52.403Z,982.41
2023-03-15T08:23:52.445Z,982.42
2023-03-15T08:24:52.399Z,982.46
2023-03-15T08:25:52.389Z,982.47
2023-03-15T08:26:52.350Z,982.46
2023-03-15T08:27:52.372Z,982.47
2023-03-15T08:28:52.331Z,982.42
2023-03-15T08:29:53.393Z,982.43
2023-03-15T08:30:52.316Z,982.43
2023-03-15T08:31:52.400Z,982.45
2023-03-15T08:32:52.409Z,982.41
2023-03-15T08:33:52.291Z,982.41
2023-03-15T08:34:52.282Z,982.42
2023-03-15T08:35:52.308Z,982.44
2023-03-15T08:36:52.330Z,982.41
2023-03-15T08:37:52.256Z,982.42
2023-03-15T08:38:52.221Z,982.44
2023-03-15T08:39:52.248Z,982.46
2023-03-15T08:40:52.213Z,982.48
2023-03-15T08:41:52.226Z,982.45
2023-03-15T08:42:52.182Z,982.52
2023-03-15T08:43:52.198Z,982.45
2023-03-15T08:44:52.164Z,982.46
2023-03-15T08:46:00.782Z,982.51
2023-03-15T08:46:52.222Z,982.46
2023-03-15T08:47:52.151Z,982.47
2023-03-15T08:48:52.112Z,982.48
2023-03-15T08:49:52.115Z,982.55
2023-03-15T08:50:52.094Z,982.49
2023-03-15T08:51:52.092Z,982.49
2023-03-15T08:52:52.087Z,982.46
2023-03-15T08:53:52.072Z,982.45
2023-03-15T08:54:52.043Z,982.45
2023-03-15T08:55:52.057Z,982.48
2023-03-15T08:56:52.027Z,982.44
2023-03-15T08:57:52.118Z,982.50
2023-03-15T08:58:52.002Z,982.55
2023-03-15T08:59:51.998Z,982.59
2023-03-15T09:00:51.999Z,982.52
2023-03-15T09:01:52.031Z,982.52
2023-03-15T09:02:52.143Z,982.54
2023-03-15T09:03:52.088Z,982.63
2023-03-15T09:04:53.499Z,982.59
2023-03-15T09:05:51.919Z,982.55
2023-03-15T09:06:51.953Z,982.56
2023-03-15T09:07:51.901Z,982.60
2023-03-15T09:08:51.929Z,982.60
2023-03-15T09:09:51.879Z,982.61
2023-03-15T09:10:51.880Z,982.66
2023-03-15T09:11:51.855Z,982.63
2023-03-15T09:12:51.877Z,982.64
2023-03-15T09:13:51.830Z,982.66
2023-03-15T09:14:51.860Z,982.68
2023-03-15T09:15:51.825Z,982.71
2023-03-15T09:16:51.830Z,982.68
2023-03-15T09:17:51.854Z,982.86
2023-03-15T09:18:51.817Z,982.70
2023-03-15T09:19:51.769Z,982.69
2023-03-15T09:20:51.796Z,982.72
2023-03-15T09:21:51.757Z,982.72
2023-03-15T09:22:51.783Z,982.71
2023-03-15T09:23:51.736Z,982.75
2023-03-15T09:24:51.952Z,982.76
2023-03-15T09:25:51.714Z,982.79
2023-03-15T09:26:51.734Z,982.75
2023-03-15T09:27:51.697Z,982.80
2023-03-15T09:28:51.718Z,982.84
2023-03-15T09:29:51.667Z,982.79
2023-03-15T09:30:51.696Z,982.83
2023-03-15T09:31:51.647Z,982.84
2023-03-15T09:32:51.735Z,982.86
2023-03-15T09:33:51.665Z,982.85
2023-03-15T09:34:51.644Z,982.90
2023-03-15T09:35:51.686Z,982.94
2023-03-15T09:36:51.619Z,982.94
2023-03-15T09:37:51.582Z,982.94
2023-03-15T09:38:51.598Z,982.92
2023-03-15T09:39:51.577Z,982.95
2023-03-15T09:40:51.585Z,983.00
2023-03-15T09:41:51.540Z,982.98
2023-03-15T09:42:51.553Z,982.98
2023-03-15T09:43:51.529Z,982.99
2023-03-15T09:44:51.532Z,983.01
2023-03-15T09:45:51.538Z,983.03
2023-03-15T09:46:51.612Z,983.05
2023-03-15T09:47:51.485Z,983.07
2023-03-15T09:48:51.495Z,983.12
2023-03-15T09:49:51.468Z,983.10
2023-03-15T09:50:51.497Z,983.14
2023-03-15T09:51:51.442Z,983.11
2023-03-15T09:52:51.448Z,983.21
2023-03-15T09:53:51.412Z,983.20
2023-03-15T09:54:51.428Z,983.13
2023-03-15T09:55:51.398Z,983.15
2023-03-15T09:56:51.472Z,983.17
2023-03-15T09:57:51.374Z,983.16
2023-03-15T09:58:51.392Z,983.17
2023-03-15T09:59:51.359Z,983.16
2023-03-15T10:00:51.378Z,983.18
2023-03-15T10:01:51.353Z,983.16
2023-03-15T10:02:51.345Z,983.16
2023-03-15T10:03:51.411Z,983.14
2023-03-15T10:04:51.328Z,983.12
2023-03-15T10:05:51.283Z,983.12
2023-03-15T10:06:51.308Z,983.15
2023-03-15T10:07:51.267Z,983.17
2023-03-15T10:08:51.280Z,983.15
2023-03-15T10:09:51.243Z,983.15
2023-03-15T10:10:51.248Z,983.12
2023-03-15T10:11:51.223Z,983.16
2023-03-15T10:12:51.242Z,983.13
2023-03-15T10:13:51.213Z,983.15
2023-03-15T10:14:51.219Z,983.18
2023-03-15T10:15:51.191Z,983.21
2023-03-15T10:16:51.187Z,983.19
2023-03-15T10:17:51.169Z,983.19
2023-03-15T10:18:51.164Z,983.20
2023-03-15T10:19:51.171Z,983.22
2023-03-15T10:20:51.164Z,983.23
2023-03-15T10:21:51.143Z,983.21
2023-03-15T10:22:51.122Z,983.22
2023-03-15T10:23:51.139Z,983.27
2023-03-15T10:24:51.130Z,983.24
2023-03-15T10:25:51.130Z,983.27
2023-03-15T10:26:51.145Z,983.27
2023-03-15T10:27:51.100Z,983.24
2023-03-15T10:28:51.065Z,983.26
2023-03-15T10:29:51.058Z,983.28
2023-03-15T10:30:51.061Z,983.26
2023-03-15T10:31:51.041Z,983.23
2023-03-15T10:32:51.042Z,983.27
2023-03-15T10:33:50.999Z,983.24
2023-03-15T10:34:51.017Z,983.29
2023-03-15T10:35:54.119Z,983.28
2023-03-15T10:36:50.976Z,983.28
2023-03-15T10:37:50.944Z,983.26
2023-03-15T10:38:50.970Z,983.26
2023-03-15T10:39:50.938Z,983.28
2023-03-15T10:40:50.948Z,983.29
2023-03-15T10:41:50.919Z,983.28
2023-03-15T10:42:50.919Z,983.30
2023-03-15T10:43:50.881Z,983.32
2023-03-15T10:44:50.885Z,983.34
2023-03-15T10:45:52.167Z,983.32
2023-03-15T10:46:50.882Z,983.37
2023-03-15T10:47:59.762Z,983.36
2023-03-15T10:48:50.844Z,983.36
2023-03-15T10:49:50.856Z,983.34
2023-03-15T10:50:50.840Z,983.36
2023-03-15T10:51:50.801Z,983.37
2023-03-15T10:52:51.595Z,983.31
2023-03-15T10:53:50.771Z,983.34
2023-03-15T10:54:55.361Z,983.37
2023-03-15T10:55:50.769Z,983.32
2023-03-15T10:56:50.775Z,983.32
2023-03-15T10:57:50.757Z,983.30
2023-03-15T10:59:09.244Z,983.32
2023-03-15T10:59:50.713Z,983.33
2023-03-15T11:00:50.727Z,983.33
2023-03-15T11:01:50.739Z,983.30
2023-03-15T11:02:50.756Z,983.32
2023-03-15T11:03:50.671Z,983.25
2023-03-15T11:04:50.670Z,983.28
2023-03-15T11:05:50.659Z,983.31
2023-03-15T11:06:57.192Z,983.29
2023-03-15T11:07:50.635Z,983.27
2023-03-15T11:08:50.656Z,983.22
2023-03-15T11:09:50.651Z,983.25
2023-03-15T11:10:50.616Z,983.27
2023-03-15T11:11:50.583Z,983.23
2023-03-15T11:12:50.617Z,983.25
2023-03-15T11:13:50.571Z,983.26
2023-03-15T11:14:50.583Z,983.23
2023-03-15T11:15:50.586Z,983.27
2023-03-15T11:16:50.584Z,983.25
2023-03-15T11:17:50.517Z,983.28
2023-03-15T11:18:50.534Z,983.24
2023-03-15T11:19:50.504Z,983.26
2023-03-15T11:20:50.520Z,983.23
2023-03-15T11:21:50.479Z,983.25
2023-03-15T11:22:50.504Z,983.26
2023-03-15T11:23:50.460Z,983.23
2023-03-15T11:24:50.529Z,983.21
2023-03-15T11:25:50.438Z,983.25
2023-03-15T11:26:50.441Z,983.26
2023-03-15T11:27:50.419Z,983.26
2023-03-15T11:28:50.433Z,983.25
2023-03-15T11:29:50.395Z,983.25
2023-03-15T11:30:50.423Z,983.24
2023-03-15T11:31:50.433Z,983.23
2023-03-15T11:32:50.419Z,983.26
2023-03-15T11:33:50.352Z,983.26
2023-03-15T11:34:50.386Z,983.25
2023-03-15T11:35:50.359Z,983.24
2023-03-15T11:37:01.853Z,983.25
2023-03-15T11:37:50.316Z,983.27
2023-03-15T11:38:50.320Z,983.29
2023-03-15T11:39:51.795Z,983.30
2023-03-15T11:40:50.304Z,983.30
2023-03-15T11:41:50.269Z,983.35
2023-03-15T11:42:50.289Z,983.34
2023-03-15T11:43:50.251Z,983.36
2023-03-15T11:44:50.268Z,983.27
2023-03-15T11:45:50.313Z,983.33
2023-03-15T11:46:50.239Z,983.30
2023-03-15T11:47:50.207Z,983.29
2023-03-15T11:48:50.214Z,983.29
2023-03-15T11:49:50.188Z,983.32
2023-03-15T11:50:50.200Z,983.32
2023-03-15T11:51:50.165Z,983.30
2023-03-15T11:52:50.172Z,983.30
2023-03-15T11:53:50.156Z,983.31
2023-03-15T11:54:50.169Z,983.31
2023-03-15T11:55:50.135Z,983.31
2023-03-15T11:56:50.150Z,983.33
2023-03-15T11:57:50.101Z,983.32
2023-03-15T11:58:50.109Z,983.37
2023-03-15T11:59:50.127Z,983.34
2023-03-15T12:00:50.113Z,983.35
2023-03-15T12:01:50.145Z,983.30
2023-03-15T12:02:50.066Z,983.34
2023-03-15T12:03:50.040Z,983.30
2023-03-15T12:04:50.072Z,983.31
2023-03-15T12:05:50.046Z,983.33
2023-03-15T12:06:50.039Z,983.32
2023-03-15T12:07:50.000Z,983.34
2023-03-15T12:08:50.023Z,983.33
2023-03-15T12:09:49.980Z,983.31
2023-03-15T12:10:49.987Z,983.29
2023-03-15T12:11:49.964Z,983.34
2023-03-15T12:12:50.027Z,983.35
2023-03-15T12:13:49.933Z,983.33
2023-03-15T12:14:49.939Z,983.33
2023-03-15T12:15:49.927Z,983.35
2023-03-15T12:16:49.991Z,983.37
2023-03-15T12:17:49.926Z,983.35
2023-03-15T12:18:49.910Z,983.37
2023-03-15T12:19:49.872Z,983.38
2023-03-15T12:20:49.888Z,983.38
2023-03-15T12:21:49.853Z,983.36
2023-03-15T12:22:49.873Z,983.38
2023-03-15T12:23:49.845Z,983.40
2023-03-15T12:24:49.835Z,983.41
2023-03-15T12:25:55.171Z,983.38
2023-03-15T12:26:49.820Z,983.41
2023-03-15T12:27:49.793Z,983.38
2023-03-15T12:28:49.810Z,983.42